Casa Grande, AZ (85122)

12:17 AM MST on September 19, 2014 (GMT -0700)
Vyn's tower | Change Station
CLOSE
Current Station
Personal Weather Station
Location: Arizona City, AZ
Elevation: 1530 ft
Nearby Weather Stations
Active Advisory: Areal Flood Warning, Areal Flood Advisory Active Notice: Record Report

Elev 1530 ft 32.73 °N, 111.66 °W | Updated 3 seconds ago

Clear
Clear
77.7 °F
Feels Like 80 °F
N
4.0
Wind Variable Wind from South
Gusts 4.9 mph

Today
High -- | Low -- °F
--% Chance of Precip.
Yesterday
High -- | Low -- °F
Precip. -- in
6:13 AM 6:28 PM
Waning Crescent, 21% visible
Pressure 29.80 in
Visibility 10.0 miles
Clouds Clear
Heat Index 80 °F
Dew Point 72 °F
Humidity 83%
Rainfall 0.00 in
Snow Depth Not available.
UV 0 out of 12
Pollen 4.10 out of 12
Air Quality Not available.
Flu Activity Not available.
METAR KCGZ 190655Z AUTO 00000KT 10SM CLR 28/19 A2980 RMK AO1

More Conditions Fewer Conditions

Pressure 29.80 in
Visibility 10.0 miles
Clouds Clear
Heat Index 80 °F
Dew Point 72 °F
Humidity 83%
Rainfall 0.00 in
Snow Depth Not available.
UV 0 out of 12
Pollen 4.10 out of 12
Air Quality Not available.
Flu Activity Not available.
METAR KCGZ 190655Z AUTO 00000KT 10SM CLR 28/19 A2980 RMK AO1

More Conditions Fewer Conditions

10-Day Weather Forecast

Almanac

Astronomy

Sep. 19, 2014 Rise Set
Actual Time 6:13 AM MST 6:28 PM MST
Civil Twilight 5:49 AM MST 6:52 PM MST
Nautical Twilight 5:20 AM MST 7:21 PM MST
Astronomical Twilight 4:51 AM MST 7:50 PM MST
Moon 2:13 AM MST 3:49 PM MST
Length of Visible Light 13h 03m
Length of Day
12h 14m
Tomorrow will be 2m 0s shorter.
Waning Crescent, 21% of the Moon is Illuminated
Today
Waning Crescent
Sep 24
New
Oct 1
First Quarter
Oct 8
Full
Oct 15
Last Quarter

Community

WunderPhotos

Upload Photos

1,754,575 photos uploaded!

Nearby

Snow Depth

Station Depth Elevation
Beaver Head 3 in 7990 ft
Workman Creek 2 in 6900 ft
Wildcat 0 in 7850 ft
White Horse Lake 0 in 7180 ft
Promontory 0 in 7930 ft

Earthquake Activity

City Distance Mag. Time & Date
No recent earthquake activity has been reported nearby.
Minimum magnitude displayed is 2.5.

Coastal Water Temperatures

Place Temperature
No Stations Reporting

Nearby Weather Stations